createdAt,value
2019-05-16T00:01:04.762Z,7.90
2019-05-16T00:03:35.494Z,8.00
2019-05-16T00:06:08.445Z,7.90
2019-05-16T00:08:38.914Z,7.80
2019-05-16T00:11:09.783Z,7.80
2019-05-16T00:13:40.540Z,7.80
2019-05-16T00:16:11.237Z,7.80
2019-05-16T00:18:42.102Z,7.60
2019-05-16T00:21:12.871Z,7.60
2019-05-16T00:23:43.624Z,7.60
2019-05-16T00:26:14.770Z,7.50
2019-05-16T00:28:48.434Z,7.60
2019-05-16T00:31:19.389Z,7.60
2019-05-16T00:33:50.189Z,7.40
2019-05-16T00:36:20.903Z,7.40
2019-05-16T00:38:51.613Z,7.40
2019-05-16T00:41:22.303Z,7.30
2019-05-16T00:43:53.014Z,7.40
2019-05-16T00:46:23.790Z,7.40
2019-05-16T00:48:55.717Z,7.20
2019-05-16T00:51:28.642Z,7.20
2019-05-16T00:53:58.963Z,7.20
2019-05-16T00:56:31.795Z,7.10
2019-05-16T00:59:03.691Z,7.10
2019-05-16T01:01:34.416Z,7.20
2019-05-16T01:04:05.334Z,7.30
2019-05-16T01:06:37.905Z,7.30
2019-05-16T01:09:08.868Z,7.30
2019-05-16T01:11:39.912Z,7.30
2019-05-16T01:14:11.073Z,7.20
2019-05-16T01:16:41.863Z,7.20
2019-05-16T01:19:12.657Z,7.20
2019-05-16T01:21:43.365Z,7.20
2019-05-16T01:24:14.158Z,7.20
2019-05-16T01:26:45.033Z,7.20
2019-05-16T01:29:15.989Z,7.10
2019-05-16T01:31:48.351Z,7.20
2019-05-16T01:34:20.375Z,7.20
2019-05-16T01:36:51.422Z,7.20
2019-05-16T01:39:22.189Z,7.30
2019-05-16T01:41:53.161Z,7.30
2019-05-16T01:44:24.911Z,7.20
2019-05-16T01:46:55.830Z,7.20
2019-05-16T01:49:28.011Z,7.30
2019-05-16T01:51:58.874Z,7.30
2019-05-16T01:54:29.816Z,7.20
2019-05-16T01:57:00.554Z,7.30
2019-05-16T01:59:31.254Z,7.30
2019-05-16T02:02:01.963Z,7.30
2019-05-16T02:04:32.673Z,7.30
2019-05-16T02:07:03.555Z,7.30
2019-05-16T02:09:34.668Z,7.40
2019-05-16T02:12:08.106Z,7.30
2019-05-16T02:14:38.814Z,7.30
2019-05-16T02:17:11.280Z,7.40
2019-05-16T02:19:42.136Z,7.30
2019-05-16T02:22:12.887Z,7.30
2019-05-16T02:24:43.709Z,7.40
2019-05-16T02:27:15.380Z,7.40
2019-05-16T02:29:46.065Z,7.40
2019-05-16T02:32:16.801Z,7.50
2019-05-16T02:34:47.490Z,7.50
2019-05-16T02:37:25.903Z,7.60
2019-05-16T02:39:54.452Z,7.60
2019-05-16T02:42:23.907Z,7.60
2019-05-16T02:44:54.937Z,7.60
2019-05-16T02:47:25.696Z,7.50
2019-05-16T02:49:56.463Z,7.50
2019-05-16T02:52:27.259Z,7.50
2019-05-16T02:55:00.764Z,7.50
2019-05-16T02:57:31.676Z,7.50
2019-05-16T03:00:02.766Z,7.50
2019-05-16T03:02:33.690Z,7.50
2019-05-16T03:05:04.593Z,7.50
2019-05-16T03:07:41.471Z,7.50
2019-05-16T03:10:11.104Z,7.60
2019-05-16T03:12:42.728Z,7.60
2019-05-16T03:15:13.826Z,7.60
2019-05-16T03:17:44.945Z,7.60
2019-05-16T03:20:15.849Z,7.60
2019-05-16T03:22:51.758Z,7.60
2019-05-16T03:25:22.141Z,7.60
2019-05-16T03:27:53.482Z,7.70
2019-05-16T03:30:24.414Z,7.70
2019-05-16T03:32:55.333Z,7.70
2019-05-16T03:35:26.150Z,7.70
2019-05-16T03:38:01.463Z,7.70
2019-05-16T03:40:32.594Z,7.80
2019-05-16T03:43:03.316Z,7.80
2019-05-16T03:45:34.074Z,7.80
2019-05-16T03:48:05.255Z,7.80
2019-05-16T03:50:36.585Z,7.80
2019-05-16T03:53:07.327Z,7.80
2019-05-16T03:55:40.608Z,7.80
2019-05-16T03:58:11.867Z,7.90
2019-05-16T04:00:52.600Z,7.90
2019-05-16T04:03:28.162Z,7.90
2019-05-16T04:05:56.650Z,7.90
2019-05-16T04:08:31.032Z,8.00
2019-05-16T04:11:01.700Z,7.90
2019-05-16T04:13:32.630Z,8.00
2019-05-16T04:16:03.477Z,8.00
2019-05-16T04:18:34.272Z,8.00
2019-05-16T04:21:04.963Z,8.00
2019-05-16T04:23:36.172Z,8.00
2019-05-16T04:26:06.920Z,8.00
2019-05-16T04:28:41.001Z,8.00
2019-05-16T04:31:11.092Z,8.00
2019-05-16T04:33:42.013Z,8.00
2019-05-16T04:36:12.703Z,8.00
2019-05-16T04:38:46.681Z,8.00
2019-05-16T04:41:20.812Z,8.00
2019-05-16T04:43:50.948Z,8.10
2019-05-16T04:46:21.793Z,8.10
2019-05-16T04:48:53.502Z,8.00
2019-05-16T04:51:24.317Z,8.00
2019-05-16T04:53:55.479Z,8.00
2019-05-16T04:56:26.201Z,8.10
2019-05-16T04:58:56.904Z,8.10
2019-05-16T05:01:30.539Z,8.10
2019-05-16T05:04:08.991Z,8.10
2019-05-16T05:06:33.853Z,8.10
2019-05-16T05:09:06.187Z,8.20
2019-05-16T05:11:37.025Z,8.10
2019-05-16T05:14:10.308Z,8.20
2019-05-16T05:16:41.405Z,8.20
2019-05-16T05:19:12.526Z,8.20
2019-05-16T05:21:44.607Z,8.10
2019-05-16T05:24:15.388Z,8.10
2019-05-16T05:26:46.063Z,8.10
2019-05-16T05:29:16.763Z,8.10
2019-05-16T05:31:47.525Z,8.20
2019-05-16T05:34:19.907Z,8.10
2019-05-16T05:36:51.381Z,8.20
2019-05-16T05:39:23.601Z,8.20
2019-05-16T05:41:54.323Z,8.20
2019-05-16T05:44:26.243Z,8.20
2019-05-16T05:46:57.180Z,8.20
2019-05-16T05:49:30.177Z,8.20
2019-05-16T05:52:00.923Z,8.30
2019-05-16T05:54:33.200Z,8.20
2019-05-16T05:57:04.441Z,8.30
2019-05-16T05:59:35.288Z,8.30
2019-05-16T06:02:06.342Z,8.30
2019-05-16T06:04:39.447Z,8.30
2019-05-16T06:07:10.221Z,8.30
2019-05-16T06:09:52.847Z,8.40
2019-05-16T06:12:13.503Z,8.40
2019-05-16T06:14:45.441Z,8.40
2019-05-16T06:17:16.149Z,8.40
2019-05-16T06:19:49.604Z,8.40
2019-05-16T06:22:20.519Z,8.50
2019-05-16T06:24:51.370Z,8.50
2019-05-16T06:27:22.309Z,8.40
2019-05-16T06:29:53.109Z,8.50
2019-05-16T06:32:24.036Z,8.50
2019-05-16T06:34:54.805Z,8.50
2019-05-16T06:37:25.544Z,8.50
2019-05-16T06:40:00.794Z,8.50
2019-05-16T06:42:31.516Z,8.50
2019-05-16T06:45:02.289Z,8.40
2019-05-16T06:47:33.034Z,8.50
2019-05-16T06:50:03.942Z,8.50
2019-05-16T06:52:34.958Z,8.50
2019-05-16T06:55:07.166Z,8.50
2019-05-16T06:57:40.635Z,8.50
2019-05-16T07:00:11.212Z,8.50
2019-05-16T07:02:42.037Z,8.50
2019-05-16T07:05:13.713Z,8.50
2019-05-16T07:07:44.448Z,8.50
2019-05-16T07:10:15.392Z,8.50
2019-05-16T07:12:46.313Z,8.60
2019-05-16T07:15:17.411Z,8.60
2019-05-16T07:17:50.463Z,8.60
2019-05-16T07:20:21.226Z,8.60
2019-05-16T07:22:51.934Z,8.60
2019-05-16T07:25:22.802Z,8.60
2019-05-16T07:27:53.725Z,8.60
2019-05-16T07:30:24.970Z,8.70
2019-05-16T07:32:55.755Z,8.70
2019-05-16T07:35:26.551Z,8.60
2019-05-16T07:37:57.292Z,8.70
2019-05-16T07:40:30.654Z,8.70
2019-05-16T07:43:00.482Z,8.80
2019-05-16T07:45:31.340Z,8.90
2019-05-16T07:48:03.168Z,8.90
2019-05-16T07:50:34.207Z,8.90
2019-05-16T07:53:05.027Z,9.00
2019-05-16T07:55:35.800Z,9.00
2019-05-16T07:58:06.777Z,9.00
2019-05-16T08:00:49.770Z,9.00
2019-05-16T08:03:10.528Z,9.00
2019-05-16T08:05:41.516Z,9.00
2019-05-16T08:08:12.450Z,9.00
2019-05-16T08:10:46.685Z,9.00
2019-05-16T08:13:17.717Z,9.00
2019-05-16T08:15:50.386Z,9.00
2019-05-16T08:18:21.946Z,9.00
2019-05-16T08:20:52.969Z,9.00
2019-05-16T08:23:24.160Z,9.10
2019-05-16T08:25:55.282Z,9.10
2019-05-16T08:28:26.064Z,9.10
2019-05-16T08:30:56.819Z,9.20
2019-05-16T08:33:27.585Z,9.10
2019-05-16T08:36:04.789Z,9.10
2019-05-16T08:38:31.307Z,9.20
2019-05-16T08:41:11.770Z,9.20
2019-05-16T08:43:34.606Z,9.30
2019-05-16T08:46:05.515Z,9.30
2019-05-16T08:48:41.985Z,9.30
2019-05-16T08:51:12.218Z,9.30
2019-05-16T08:53:44.840Z,9.30
2019-05-16T08:56:15.479Z,9.40
2019-05-16T08:58:53.401Z,9.40
2019-05-16T09:01:21.653Z,9.30
2019-05-16T09:03:52.977Z,9.40
2019-05-16T09:06:23.943Z,9.40
2019-05-16T09:08:58.502Z,9.40
2019-05-16T09:11:39.986Z,9.50
2019-05-16T09:14:00.062Z,9.50
2019-05-16T09:16:30.759Z,9.50
2019-05-16T09:19:01.879Z,9.50
2019-05-16T09:21:32.579Z,9.50
2019-05-16T09:24:03.425Z,9.50
2019-05-16T09:26:34.157Z,9.50
2019-05-16T09:29:12.033Z,9.50
2019-05-16T09:31:38.641Z,9.50
2019-05-16T09:34:09.728Z,9.50
2019-05-16T09:36:40.527Z,9.50
2019-05-16T09:39:11.530Z,9.50
2019-05-16T09:41:50.985Z,9.50
2019-05-16T09:44:14.629Z,9.50
2019-05-16T09:46:47.117Z,9.60
2019-05-16T09:49:24.216Z,9.60
2019-05-16T09:51:50.363Z,9.70
2019-05-16T09:54:21.336Z,9.70
2019-05-16T09:56:52.263Z,9.70
2019-05-16T09:59:23.050Z,9.60
2019-05-16T10:01:56.933Z,9.60
2019-05-16T10:04:26.909Z,9.60
2019-05-16T10:06:57.794Z,9.60
2019-05-16T10:09:41.232Z,9.60
2019-05-16T10:12:14.118Z,9.60
2019-05-16T10:14:34.024Z,9.60
2019-05-16T10:17:04.821Z,9.60
2019-05-16T10:19:36.788Z,9.60
2019-05-16T10:22:07.771Z,9.60
2019-05-16T10:24:38.622Z,9.70
2019-05-16T10:27:10.637Z,9.70
2019-05-16T10:29:41.532Z,9.70
2019-05-16T10:32:12.422Z,9.70
2019-05-16T10:34:43.174Z,9.80
2019-05-16T10:37:13.932Z,9.80
2019-05-16T10:39:46.761Z,9.90
2019-05-16T10:42:27.940Z,9.90
2019-05-16T10:44:49.589Z,9.90
2019-05-16T10:47:20.335Z,9.90
2019-05-16T10:49:51.139Z,9.90
2019-05-16T10:52:23.164Z,9.90
2019-05-16T10:54:58.505Z,9.90
2019-05-16T10:57:29.425Z,9.90
2019-05-16T11:00:09.150Z,10.00
2019-05-16T11:02:33.822Z,10.00
2019-05-16T11:05:22.630Z,10.10
2019-05-16T11:07:37.682Z,10.20
2019-05-16T11:10:08.821Z,10.30
2019-05-16T11:12:50.260Z,10.40
2019-05-16T11:15:12.616Z,10.50
2019-05-16T11:17:44.114Z,10.50
2019-05-16T11:20:19.532Z,10.50
2019-05-16T11:22:49.788Z,10.50
2019-05-16T11:25:28.773Z,10.50
2019-05-16T11:27:53.456Z,10.50
2019-05-16T11:30:24.581Z,10.40
2019-05-16T11:32:56.714Z,10.40
2019-05-16T11:35:28.195Z,10.40
2019-05-16T11:37:59.125Z,10.50
2019-05-16T11:40:30.423Z,10.50
2019-05-16T11:43:09.979Z,10.60
2019-05-16T11:45:36.592Z,10.60
2019-05-16T11:48:08.101Z,10.70
2019-05-16T11:50:39.034Z,10.70
2019-05-16T11:53:09.905Z,10.70
2019-05-16T11:55:51.848Z,10.70
2019-05-16T11:58:13.429Z,10.80
2019-05-16T12:00:44.479Z,10.90
2019-05-16T12:03:17.092Z,11.00
2019-05-16T12:05:49.113Z,11.00
2019-05-16T12:08:20.115Z,11.10
2019-05-16T12:10:50.947Z,11.10
2019-05-16T12:13:31.642Z,11.10
2019-05-16T12:15:56.626Z,11.20
2019-05-16T12:18:27.090Z,11.20
2019-05-16T12:20:58.078Z,11.20
2019-05-16T12:23:28.897Z,11.20
2019-05-16T12:26:00.281Z,11.20
2019-05-16T12:28:31.227Z,11.30
2019-05-16T12:31:02.020Z,11.30
2019-05-16T12:33:32.953Z,11.30
2019-05-16T12:36:07.372Z,11.30
2019-05-16T12:38:38.237Z,11.10
2019-05-16T12:41:09.908Z,11.10
2019-05-16T12:43:49.022Z,11.00
2019-05-16T12:46:13.103Z,11.00
2019-05-16T12:48:44.109Z,11.00
2019-05-16T12:51:17.122Z,11.10
2019-05-16T12:53:47.916Z,11.10
2019-05-16T12:56:20.134Z,11.20
2019-05-16T12:58:51.921Z,11.20
2019-05-16T13:01:30.711Z,11.30
2019-05-16T13:03:55.870Z,11.30
2019-05-16T13:06:27.763Z,11.30
2019-05-16T13:08:58.550Z,11.40
2019-05-16T13:11:29.591Z,11.40
2019-05-16T13:14:06.529Z,11.40
2019-05-16T13:16:32.678Z,11.40
2019-05-16T13:19:03.720Z,11.50
2019-05-16T13:21:34.828Z,11.60
2019-05-16T13:24:06.909Z,11.70
2019-05-16T13:26:37.819Z,11.60
2019-05-16T13:29:08.660Z,11.60
2019-05-16T13:31:39.488Z,11.60
2019-05-16T13:34:10.261Z,11.60
2019-05-16T13:36:41.457Z,11.70
2019-05-16T13:39:12.406Z,11.70
2019-05-16T13:41:43.118Z,11.60
2019-05-16T13:44:18.883Z,11.50
2019-05-16T13:46:46.888Z,11.60
2019-05-16T13:49:18.818Z,11.60
2019-05-16T13:51:49.588Z,11.70
2019-05-16T13:54:20.557Z,11.80
2019-05-16T13:56:51.614Z,11.80
2019-05-16T13:59:22.466Z,11.90
2019-05-16T14:01:53.275Z,11.90
2019-05-16T14:04:26.317Z,11.90
2019-05-16T14:06:58.839Z,12.00
2019-05-16T14:09:28.746Z,12.10
2019-05-16T14:11:59.452Z,12.20
2019-05-16T14:14:37.229Z,12.20
2019-05-16T14:17:03.024Z,12.20
2019-05-16T14:19:33.899Z,12.30
2019-05-16T14:22:07.462Z,12.30
2019-05-16T14:24:37.411Z,12.30
2019-05-16T14:27:08.326Z,12.20
2019-05-16T14:29:39.261Z,12.10
2019-05-16T14:32:10.908Z,12.10
2019-05-16T14:34:46.341Z,12.20
2019-05-16T14:37:14.740Z,12.20
2019-05-16T14:39:48.643Z,12.30
2019-05-16T14:42:18.051Z,12.20
2019-05-16T14:45:03.685Z,12.20
2019-05-16T14:47:22.488Z,12.20
2019-05-16T14:49:53.383Z,12.20
2019-05-16T14:52:24.100Z,12.10
2019-05-16T14:54:57.366Z,12.20
2019-05-16T14:57:27.489Z,12.20
2019-05-16T14:59:58.225Z,12.20
2019-05-16T15:02:29.117Z,12.30
2019-05-16T15:04:59.942Z,12.30
2019-05-16T15:07:30.755Z,12.30
2019-05-16T15:10:01.860Z,12.30
2019-05-16T15:12:33.014Z,12.40
2019-05-16T15:15:17.186Z,12.30
2019-05-16T15:17:36.979Z,12.40
2019-05-16T15:20:09.917Z,12.40
2019-05-16T15:22:40.641Z,12.40
2019-05-16T15:25:11.736Z,12.50
2019-05-16T15:27:42.728Z,12.40
2019-05-16T15:30:17.201Z,12.40
2019-05-16T15:32:49.753Z,12.40
2019-05-16T15:35:20.728Z,12.40
2019-05-16T15:37:51.621Z,12.40
2019-05-16T15:40:22.497Z,12.40
2019-05-16T15:42:58.865Z,12.40
2019-05-16T15:45:42.595Z,12.30
2019-05-16T15:48:09.159Z,12.40
2019-05-16T15:50:40.320Z,12.30
2019-05-16T15:53:11.530Z,12.30
2019-05-16T15:55:43.890Z,12.30
2019-05-16T15:58:17.788Z,12.30
2019-05-16T16:00:48.706Z,12.30
2019-05-16T16:03:19.770Z,12.30
2019-05-16T16:05:50.863Z,12.30
2019-05-16T16:08:21.626Z,12.30
2019-05-16T16:10:52.356Z,12.40
2019-05-16T16:13:23.457Z,12.40
2019-05-16T16:15:54.739Z,12.30
2019-05-16T16:18:27.055Z,12.30
2019-05-16T16:20:58.374Z,12.30
2019-05-16T16:23:29.151Z,12.30
2019-05-16T16:26:00.115Z,12.20
2019-05-16T16:28:32.553Z,12.20
2019-05-16T16:31:03.605Z,12.20
2019-05-16T16:33:34.373Z,12.20
2019-05-16T16:36:07.572Z,12.20
2019-05-16T16:40:57.950Z,12.20
2019-05-16T16:43:28.833Z,12.20
2019-05-16T16:46:08.774Z,12.20
2019-05-16T16:48:32.393Z,12.20
2019-05-16T16:51:06.370Z,12.20
2019-05-16T16:53:37.726Z,12.10
2019-05-16T16:56:08.950Z,12.10
2019-05-16T16:58:39.797Z,12.10
2019-05-16T17:01:10.825Z,12.10
2019-05-16T17:03:41.555Z,12.10
2019-05-16T17:06:12.663Z,12.10
2019-05-16T17:08:43.380Z,12.10
2019-05-16T17:11:14.421Z,12.00
2019-05-16T17:13:47.246Z,12.00
2019-05-16T17:16:25.809Z,12.00
2019-05-16T17:18:50.182Z,12.10
2019-05-16T17:21:21.106Z,12.10
2019-05-16T17:23:51.857Z,12.10
2019-05-16T17:26:22.695Z,12.10
2019-05-16T17:28:57.008Z,12.00
2019-05-16T17:31:27.318Z,11.90
2019-05-16T17:33:58.355Z,11.90
2019-05-16T17:36:29.162Z,11.90
2019-05-16T17:38:59.880Z,11.80
2019-05-16T17:41:30.860Z,11.80
2019-05-16T17:44:01.807Z,11.70
2019-05-16T17:46:36.827Z,11.70
2019-05-16T17:49:07.246Z,11.70
2019-05-16T17:51:37.702Z,11.60
2019-05-16T17:54:09.216Z,11.50
2019-05-16T17:56:40.113Z,11.40
2019-05-16T17:59:11.078Z,11.50
2019-05-16T18:01:42.159Z,11.40
2019-05-16T18:04:12.975Z,11.50
2019-05-16T18:06:43.941Z,11.40
2019-05-16T18:09:17.055Z,11.40
2019-05-16T18:11:48.097Z,11.30
2019-05-16T18:14:19.909Z,11.30
2019-05-16T18:16:58.400Z,11.40
2019-05-16T18:19:23.763Z,11.40
2019-05-16T18:21:56.974Z,11.40
2019-05-16T18:24:27.457Z,11.30
2019-05-16T18:26:58.351Z,11.30
2019-05-16T18:29:29.768Z,11.30
2019-05-16T18:32:00.704Z,11.30
2019-05-16T18:34:31.609Z,11.30
2019-05-16T18:37:02.426Z,11.30
2019-05-16T18:39:33.694Z,11.30
2019-05-16T18:42:04.636Z,11.30
2019-05-16T18:44:36.592Z,11.30
2019-05-16T18:47:11.164Z,11.30
2019-05-16T18:49:40.055Z,11.20
2019-05-16T18:52:10.849Z,11.10
2019-05-16T18:54:42.190Z,11.10
2019-05-16T18:57:13.027Z,11.00
2019-05-16T18:59:46.131Z,11.00
2019-05-16T19:02:17.976Z,11.10
2019-05-16T19:04:49.828Z,11.10
2019-05-16T19:07:21.816Z,11.10
2019-05-16T19:09:52.790Z,11.10
2019-05-16T19:12:26.195Z,11.10
2019-05-16T19:14:57.160Z,11.10
2019-05-16T19:17:28.991Z,11.10
2019-05-16T19:20:00.238Z,11.10
2019-05-16T19:22:31.046Z,11.10
2019-05-16T19:25:01.751Z,11.10
2019-05-16T19:27:33.836Z,11.10
2019-05-16T19:30:06.279Z,11.10
2019-05-16T19:32:39.574Z,11.10
2019-05-16T19:35:11.364Z,11.10
2019-05-16T19:37:42.442Z,11.20
2019-05-16T19:40:14.238Z,11.20
2019-05-16T19:42:47.153Z,11.20
2019-05-16T19:45:18.274Z,11.20
2019-05-16T19:47:49.159Z,11.30
2019-05-16T19:50:20.163Z,11.30
2019-05-16T19:52:50.988Z,11.30
2019-05-16T19:55:21.902Z,11.20
2019-05-16T19:57:52.984Z,11.20
2019-05-16T20:00:26.426Z,11.20
2019-05-16T20:02:57.099Z,11.10
2019-05-16T20:05:28.353Z,11.10
2019-05-16T20:08:00.470Z,11.10
2019-05-16T20:10:31.343Z,11.10
2019-05-16T20:13:02.193Z,11.10
2019-05-16T20:15:33.129Z,11.10
2019-05-16T20:18:07.435Z,11.10
2019-05-16T20:20:37.805Z,11.20
2019-05-16T20:23:08.679Z,11.20
2019-05-16T20:25:39.551Z,11.20
2019-05-16T20:28:10.330Z,11.10
2019-05-16T20:30:41.211Z,11.00
2019-05-16T20:33:12.072Z,11.00
2019-05-16T20:35:43.066Z,11.00
2019-05-16T20:38:14.193Z,11.00
2019-05-16T20:40:46.633Z,11.00
2019-05-16T20:43:17.473Z,10.90
2019-05-16T20:45:48.287Z,10.90
2019-05-16T20:48:19.004Z,10.90
2019-05-16T20:50:49.872Z,10.90
2019-05-16T20:53:20.695Z,10.90
2019-05-16T20:55:51.658Z,10.90
2019-05-16T20:58:22.474Z,10.80
2019-05-16T21:00:54.349Z,10.90
2019-05-16T21:03:27.085Z,10.90
2019-05-16T21:05:58.420Z,10.80
2019-05-16T21:08:29.349Z,10.80
2019-05-16T21:11:00.070Z,10.90
2019-05-16T21:13:31.434Z,10.80
2019-05-16T21:16:02.399Z,10.80
2019-05-16T21:18:33.509Z,10.80
2019-05-16T21:21:04.293Z,10.70
2019-05-16T21:23:36.572Z,10.80
2019-05-16T21:26:07.696Z,10.70
2019-05-16T21:28:38.380Z,10.70
2019-05-16T21:31:09.006Z,10.70
2019-05-16T21:33:40.164Z,10.70
2019-05-16T21:36:10.924Z,10.60
2019-05-16T21:38:41.852Z,10.60
2019-05-16T21:41:12.722Z,10.50
2019-05-16T21:43:44.179Z,10.50
2019-05-16T21:46:17.102Z,10.40
2019-05-16T21:48:47.565Z,10.30
2019-05-16T21:51:19.751Z,10.30
2019-05-16T21:53:50.791Z,10.20
2019-05-16T21:56:21.800Z,10.20
2019-05-16T21:58:52.606Z,10.10
2019-05-16T22:01:26.721Z,10.10
2019-05-16T22:03:57.710Z,10.00
2019-05-16T22:06:28.462Z,9.90
2019-05-16T22:08:59.232Z,9.90
2019-05-16T22:11:30.040Z,9.80
2019-05-16T22:14:00.765Z,9.80
2019-05-16T22:16:31.622Z,9.70
2019-05-16T22:19:03.271Z,9.60
2019-05-16T22:21:34.376Z,9.60
2019-05-16T22:24:06.581Z,9.60
2019-05-16T22:26:37.514Z,9.60
2019-05-16T22:29:08.379Z,9.60
2019-05-16T22:31:39.128Z,9.60
2019-05-16T22:34:09.926Z,9.60
2019-05-16T22:36:40.669Z,9.60
2019-05-16T22:39:11.445Z,9.50
2019-05-16T22:41:42.242Z,9.50
2019-05-16T22:44:12.986Z,9.40
2019-05-16T22:46:46.391Z,9.30
2019-05-16T22:49:16.948Z,9.20
2019-05-16T22:51:47.760Z,9.20
2019-05-16T22:54:18.414Z,9.10
2019-05-16T22:56:49.197Z,9.00
2019-05-16T22:59:20.092Z,9.00
2019-05-16T23:01:51.102Z,9.10
2019-05-16T23:04:22.629Z,9.10
2019-05-16T23:06:53.701Z,9.10
2019-05-16T23:09:27.058Z,9.10
2019-05-16T23:11:57.950Z,9.00
2019-05-16T23:14:28.631Z,9.00
2019-05-16T23:16:59.411Z,9.00
2019-05-16T23:19:30.390Z,9.00
2019-05-16T23:22:01.090Z,9.00
2019-05-16T23:24:32.285Z,8.90
2019-05-16T23:27:03.021Z,8.90
2019-05-16T23:29:33.706Z,8.90
2019-05-16T23:32:07.177Z,8.90
2019-05-16T23:34:37.705Z,8.80
2019-05-16T23:37:08.348Z,8.70
2019-05-16T23:39:39.157Z,8.70
2019-05-16T23:42:10.395Z,8.70
2019-05-16T23:44:41.251Z,8.60
2019-05-16T23:47:12.126Z,8.50
2019-05-16T23:49:43.026Z,8.50
2019-05-16T23:52:13.748Z,8.40
2019-05-16T23:54:44.480Z,8.40
2019-05-16T23:57:15.262Z,8.40
2019-05-16T23:59:47.284Z,8.30
